Time;durP1;ratioP1;P1;durP2;ratioP2;P2;SDS_P1;SDS_P2;PMS_P1;PMS_P2;Temp;Humidity;BMP_temperature;BMP_pressure;BME280_temperature;BME280_humidity;BME280_pressure;Samples;Min_cycle;Max_cycle;Signal;HPM_P1;HPM_P2
2024/03/03 00:03:09;;;;;;;8.70;4.07;;;;;;;;;;10141745;28;20052;-82
2024/03/03 00:08:05;;;;;;;2.75;2.53;;;;;;;;;;10138209;28;20061;-87
2024/03/03 00:12:58;;;;;;;11.55;8.32;;;;;;;;;;10125219;28;20397;-87
2024/03/03 00:17:51;;;;;;;7.88;5.10;;;;;;;;;;10125485;28;20424;-85
2024/03/03 00:22:46;;;;;;;10.88;8.52;;;;;;;;;;10140768;28;20076;-87
2024/03/03 00:27:40;;;;;;;11.18;10.07;;;;;;;;;;10121480;28;20094;-88
2024/03/03 00:32:34;;;;;;;16.83;12.45;;;;;;;;;;10140451;28;20476;-88
2024/03/03 00:37:27;;;;;;;15.15;9.70;;;;;;;;;;10141295;28;20084;-85
2024/03/03 00:42:21;;;;;;;9.95;7.60;;;;;;;;;;10139130;28;20044;-88
2024/03/03 00:47:15;;;;;;;14.52;8.88;;;;;;;;;;10143666;28;20036;-89
2024/03/03 00:52:09;;;;;;;12.75;8.90;;;;;;;;;;10141465;28;20492;-87
2024/03/03 00:57:04;;;;;;;11.02;9.35;;;;;;;;;;10141187;28;20087;-85
2024/03/03 01:01:58;;;;;;;10.25;7.90;;;;;;;;;;10131761;28;20056;-85
2024/03/03 01:06:52;;;;;;;8.45;5.63;;;;;;;;;;10145809;28;20087;-86
2024/03/03 01:11:47;;;;;;;5.63;4.75;;;;;;;;;;10151609;28;20048;-86
2024/03/03 01:16:41;;;;;;;12.50;5.65;;;;;;;;;;10150217;28;20044;-86
2024/03/03 01:21:39;;;;;;;7.80;5.15;;;;;;;;;;10149656;28;20052;-83
2024/03/03 01:26:35;;;;;;;6.45;4.93;;;;;;;;;;10147830;28;20118;-86
2024/03/03 01:31:29;;;;;;;6.07;5.10;;;;;;;;;;10131903;28;20052;-85
2024/03/03 01:36:23;;;;;;;9.40;5.57;;;;;;;;;;10147739;28;20052;-85
2024/03/03 01:41:17;;;;;;;7.78;6.63;;;;;;;;;;10133429;28;20046;-87
2024/03/03 01:46:11;;;;;;;9.38;8.30;;;;;;;;;;10132264;28;20051;-87
2024/03/03 01:51:07;;;;;;;22.33;12.48;;;;;;;;;;10145587;28;20036;-88
2024/03/03 01:56:00;;;;;;;21.50;19.30;;;;;;;;;;10152512;28;20040;-87
2024/03/03 02:00:53;;;;;;;20.67;16.70;;;;;;;;;;10137194;28;20048;-88
2024/03/03 02:05:48;;;;;;;21.55;17.67;;;;;;;;;;10146279;28;20036;-86
2024/03/03 02:10:42;;;;;;;20.48;15.10;;;;;;;;;;10145603;28;20056;-87
2024/03/03 02:15:35;;;;;;;23.38;18.90;;;;;;;;;;10145004;28;20396;-88
2024/03/03 02:20:30;;;;;;;26.15;19.02;;;;;;;;;;10114587;28;20124;-87
2024/03/03 02:25:23;;;;;;;19.52;17.48;;;;;;;;;;10145977;28;20047;-87
2024/03/03 02:30:18;;;;;;;32.55;26.88;;;;;;;;;;10147933;28;20049;-87
2024/03/03 02:35:11;;;;;;;22.27;17.63;;;;;;;;;;10145706;28;20515;-88
2024/03/03 02:40:08;;;;;;;23.65;19.73;;;;;;;;;;10141271;28;20055;-88
2024/03/03 02:45:03;;;;;;;21.08;17.98;;;;;;;;;;10130786;28;20079;-88
2024/03/03 02:49:56;;;;;;;24.05;21.70;;;;;;;;;;10137061;28;20086;-90
2024/03/03 02:54:50;;;;;;;27.00;23.17;;;;;;;;;;10157838;28;20172;-89
2024/03/03 02:59:44;;;;;;;20.75;18.58;;;;;;;;;;10124870;28;20047;-88
2024/03/03 03:04:38;;;;;;;19.63;17.63;;;;;;;;;;10130454;28;20048;-87
2024/03/03 03:09:31;;;;;;;17.38;14.95;;;;;;;;;;10137995;28;20056;-88
2024/03/03 03:14:25;;;;;;;24.85;21.40;;;;;;;;;;10135826;28;20049;-88
2024/03/03 03:19:19;;;;;;;18.42;16.52;;;;;;;;;;10139091;28;20127;-88
2024/03/03 03:24:13;;;;;;;20.83;18.13;;;;;;;;;;10127225;28;20584;-87
2024/03/03 03:29:07;;;;;;;24.75;20.77;;;;;;;;;;10144690;28;20054;-88
2024/03/03 03:34:01;;;;;;;22.45;19.35;;;;;;;;;;10145439;28;20040;-88
2024/03/03 03:38:55;;;;;;;25.63;20.95;;;;;;;;;;10146009;28;20075;-87
2024/03/03 03:43:48;;;;;;;37.05;28.27;;;;;;;;;;10142857;28;20056;-87
2024/03/03 03:48:43;;;;;;;23.90;19.75;;;;;;;;;;10140123;28;20507;-89
2024/03/03 03:53:37;;;;;;;21.55;17.73;;;;;;;;;;10144272;28;20079;-88
2024/03/03 03:58:31;;;;;;;21.05;17.13;;;;;;;;;;10138131;28;20060;-88
2024/03/03 04:03:25;;;;;;;30.40;21.60;;;;;;;;;;10142375;28;20090;-88
2024/03/03 04:08:19;;;;;;;24.90;21.58;;;;;;;;;;10141724;28;20044;-87
2024/03/03 04:13:14;;;;;;;22.00;19.55;;;;;;;;;;10143862;28;20496;-87
2024/03/03 04:18:07;;;;;;;24.65;22.15;;;;;;;;;;10143284;28;20064;-87
2024/03/03 04:23:02;;;;;;;24.25;21.77;;;;;;;;;;10144281;28;20056;-88
2024/03/03 04:27:55;;;;;;;24.30;18.70;;;;;;;;;;10142504;28;20060;-87
2024/03/03 04:32:49;;;;;;;17.45;15.70;;;;;;;;;;10141956;28;20125;-89
2024/03/03 04:37:43;;;;;;;19.23;16.55;;;;;;;;;;10141743;28;20052;-88
2024/03/03 04:42:37;;;;;;;15.93;14.15;;;;;;;;;;10142869;28;20044;-89
2024/03/03 04:47:31;;;;;;;16.35;10.45;;;;;;;;;;10143139;28;20399;-88
2024/03/03 04:52:26;;;;;;;27.73;19.88;;;;;;;;;;10137689;28;20099;-87
2024/03/03 04:57:19;;;;;;;18.70;16.73;;;;;;;;;;10143103;28;20508;-88
2024/03/03 05:02:13;;;;;;;20.35;16.60;;;;;;;;;;10144680;28;20484;-87
2024/03/03 05:07:08;;;;;;;19.70;16.33;;;;;;;;;;10143964;28;20049;-89
2024/03/03 05:12:02;;;;;;;19.67;17.20;;;;;;;;;;10143117;28;20543;-89
2024/03/03 05:16:57;;;;;;;17.92;15.55;;;;;;;;;;10143061;28;20060;-88
2024/03/03 05:21:51;;;;;;;16.42;14.77;;;;;;;;;;10152046;28;20108;-87
2024/03/03 05:26:46;;;;;;;18.02;15.90;;;;;;;;;;10141662;28;20060;-88
2024/03/03 05:31:41;;;;;;;17.45;14.45;;;;;;;;;;10142762;28;20080;-88
2024/03/03 05:36:35;;;;;;;19.27;15.88;;;;;;;;;;10141929;28;20107;-89
2024/03/03 05:41:28;;;;;;;20.83;17.52;;;;;;;;;;10143095;28;20072;-88
2024/03/03 05:46:23;;;;;;;18.30;15.23;;;;;;;;;;10144635;28;20488;-88
2024/03/03 05:51:17;;;;;;;44.33;33.90;;;;;;;;;;10150691;28;20094;-87
2024/03/03 05:56:15;;;;;;;118.45;77.13;;;;;;;;;;10150575;28;20455;-87
2024/03/03 06:01:09;;;;;;;63.80;43.85;;;;;;;;;;10149693;28;20468;-88
2024/03/03 06:06:09;;;;;;;19.45;17.55;;;;;;;;;;10138066;28;20401;-86
2024/03/03 06:11:06;;;;;;;29.70;22.80;;;;;;;;;;10150822;28;20056;-87
2024/03/03 06:16:00;;;;;;;25.13;18.73;;;;;;;;;;10150337;28;20076;-89
2024/03/03 06:20:54;;;;;;;19.48;16.80;;;;;;;;;;10147810;28;20139;-88
2024/03/03 06:25:50;;;;;;;24.05;20.65;;;;;;;;;;10142300;28;20408;-89
2024/03/03 06:30:43;;;;;;;22.17;18.30;;;;;;;;;;10146714;28;20083;-89
2024/03/03 06:35:37;;;;;;;32.83;22.63;;;;;;;;;;10147338;28;20060;-89
2024/03/03 06:40:32;;;;;;;28.92;23.77;;;;;;;;;;10149091;28;20056;-89
2024/03/03 06:45:26;;;;;;;25.50;22.00;;;;;;;;;;10147341;28;20459;-88
2024/03/03 06:50:20;;;;;;;26.80;22.15;;;;;;;;;;10148522;28;20059;-84
2024/03/03 06:55:15;;;;;;;30.98;22.73;;;;;;;;;;10145491;28;20098;-87
2024/03/03 07:00:11;;;;;;;24.75;22.17;;;;;;;;;;10146698;28;20040;-86
2024/03/03 07:05:06;;;;;;;25.52;22.75;;;;;;;;;;10145429;28;20519;-86
2024/03/03 07:10:01;;;;;;;34.00;26.88;;;;;;;;;;10143146;28;20062;-86
2024/03/03 07:14:55;;;;;;;34.28;26.10;;;;;;;;;;10146913;28;20050;-84
2024/03/03 07:19:49;;;;;;;31.35;25.98;;;;;;;;;;10144282;28;20138;-83
2024/03/03 07:24:44;;;;;;;30.88;27.55;;;;;;;;;;10136963;28;20111;-87
2024/03/03 07:29:44;;;;;;;30.92;27.63;;;;;;;;;;10137855;28;20059;-88
2024/03/03 07:34:38;;;;;;;31.45;27.10;;;;;;;;;;10130927;28;20052;-90
2024/03/03 07:39:32;;;;;;;31.30;26.13;;;;;;;;;;10136832;28;20052;-88
2024/03/03 07:44:26;;;;;;;31.50;26.63;;;;;;;;;;10134959;28;20087;-91
2024/03/03 07:49:20;;;;;;;34.33;30.77;;;;;;;;;;10139304;28;20062;-82
2024/03/03 07:54:18;;;;;;;33.70;30.38;;;;;;;;;;10140369;28;20049;-89
2024/03/03 07:59:13;;;;;;;35.63;31.80;;;;;;;;;;10130097;28;20501;-88
2024/03/03 08:04:15;;;;;;;34.33;30.75;;;;;;;;;;10140372;28;20536;-92
2024/03/03 08:09:09;;;;;;;42.10;34.80;;;;;;;;;;10135185;28;20558;-88
2024/03/03 08:14:02;;;;;;;39.55;31.92;;;;;;;;;;10136610;28;20087;-91
2024/03/03 08:18:56;;;;;;;46.17;41.53;;;;;;;;;;10155043;28;20135;-91
2024/03/03 08:23:50;;;;;;;48.20;40.30;;;;;;;;;;10138746;28;20207;-89
2024/03/03 08:28:44;;;;;;;40.58;33.40;;;;;;;;;;10145716;28;20048;-86
2024/03/03 08:33:38;;;;;;;32.95;29.17;;;;;;;;;;10136458;28;20044;-85
2024/03/03 08:38:34;;;;;;;28.23;25.50;;;;;;;;;;10141004;28;20525;-83
2024/03/03 08:43:29;;;;;;;28.40;25.42;;;;;;;;;;10141873;28;20056;-83
2024/03/03 08:48:24;;;;;;;28.98;24.98;;;;;;;;;;10143743;28;20491;-84
2024/03/03 08:53:18;;;;;;;32.45;29.00;;;;;;;;;;10142019;28;20044;-85
2024/03/03 08:58:12;;;;;;;32.47;28.85;;;;;;;;;;10135144;28;20076;-86
2024/03/03 09:03:06;;;;;;;31.83;25.25;;;;;;;;;;10131537;28;20488;-85
2024/03/03 09:07:59;;;;;;;32.40;28.83;;;;;;;;;;10120030;28;20068;-85
2024/03/03 09:12:53;;;;;;;39.38;35.33;;;;;;;;;;10133307;28;20075;-85
2024/03/03 09:17:47;;;;;;;44.50;37.42;;;;;;;;;;10135915;28;20059;-85
2024/03/03 09:22:41;;;;;;;42.65;33.85;;;;;;;;;;10147569;28;20067;-85
2024/03/03 09:27:36;;;;;;;37.25;32.78;;;;;;;;;;10147437;28;20095;-85
2024/03/03 09:32:30;;;;;;;41.38;34.90;;;;;;;;;;10146089;28;20114;-84
2024/03/03 09:37:24;;;;;;;37.50;33.42;;;;;;;;;;10147545;28;20052;-89
2024/03/03 09:42:18;;;;;;;34.95;31.38;;;;;;;;;;10147787;28;20124;-84
2024/03/03 09:47:13;;;;;;;33.42;29.90;;;;;;;;;;10150126;28;20057;-93
2024/03/03 09:52:27;;;;;;;32.95;29.50;;;;;;;;;;10151333;28;20087;-85
2024/03/03 09:57:22;;;;;;;32.22;28.73;;;;;;;;;;10139827;28;20068;-85
2024/03/03 10:02:18;;;;;;;34.67;27.90;;;;;;;;;;10145058;28;20411;-86
2024/03/03 10:07:27;;;;;;;37.30;29.50;;;;;;;;;;10131716;28;20519;-84
2024/03/03 10:12:23;;;;;;;38.38;31.30;;;;;;;;;;10137616;28;20562;-84
2024/03/03 10:17:20;;;;;;;38.58;32.15;;;;;;;;;;10131197;28;20131;-85
2024/03/03 10:22:19;;;;;;;39.70;33.83;;;;;;;;;;10143235;28;20118;-85
2024/03/03 10:27:18;;;;;;;41.47;31.55;;;;;;;;;;10146242;28;20064;-85
2024/03/03 10:32:12;;;;;;;36.47;32.53;;;;;;;;;;10148754;28;20531;-83
2024/03/03 10:37:05;;;;;;;32.55;29.25;;;;;;;;;;10140966;28;20056;-84
2024/03/03 10:42:00;;;;;;;28.80;25.05;;;;;;;;;;10139605;28;20071;-88
2024/03/03 10:46:53;;;;;;;24.75;18.00;;;;;;;;;;10129752;28;20536;-87
2024/03/03 10:51:48;;;;;;;7.68;4.30;;;;;;;;;;10136333;28;20056;-88
2024/03/03 10:56:42;;;;;;;8.93;4.50;;;;;;;;;;10141581;28;20068;-85
2024/03/03 11:01:37;;;;;;;11.32;4.93;;;;;;;;;;10152602;28;20048;-85
2024/03/03 11:06:30;;;;;;;8.45;4.03;;;;;;;;;;10135497;28;20094;-85
2024/03/03 11:11:25;;;;;;;18.77;3.42;;;;;;;;;;10135455;28;20045;-87
2024/03/03 11:16:27;;;;;;;7.38;3.10;;;;;;;;;;10145950;28;20516;-86
2024/03/03 11:21:30;;;;;;;4.33;2.63;;;;;;;;;;10117185;28;20131;-89
2024/03/03 11:26:29;;;;;;;3.72;2.13;;;;;;;;;;10123329;28;20716;-88
2024/03/03 11:31:24;;;;;;;12.15;4.57;;;;;;;;;;10112815;28;20143;-87
2024/03/03 11:36:19;;;;;;;115.65;31.02;;;;;;;;;;10126276;28;20661;-86
2024/03/03 11:41:15;;;;;;;10.55;3.88;;;;;;;;;;10116118;28;20071;-88
2024/03/03 11:46:10;;;;;;;4.47;3.00;;;;;;;;;;10129721;28;20101;-87
2024/03/03 11:51:26;;;;;;;3.15;2.10;;;;;;;;;;10131700;28;20124;-80
2024/03/03 11:56:21;;;;;;;6.63;2.20;;;;;;;;;;10127859;28;20407;-89
2024/03/03 12:01:23;;;;;;;7.90;3.00;;;;;;;;;;10128670;28;20060;-90
2024/03/03 12:06:20;;;;;;;6.03;3.60;;;;;;;;;;10142138;28;20159;-90
2024/03/03 12:11:15;;;;;;;6.50;3.05;;;;;;;;;;10141055;28;20682;-89
2024/03/03 12:16:10;;;;;;;3.53;2.45;;;;;;;;;;10154342;28;20079;-88
2024/03/03 12:21:04;;;;;;;4.30;2.58;;;;;;;;;;10146522;28;20060;-88
2024/03/03 12:25:58;;;;;;;6.88;2.90;;;;;;;;;;10142906;28;20044;-85
2024/03/03 12:30:58;;;;;;;4.20;1.70;;;;;;;;;;10138964;28;20534;-85
2024/03/03 12:35:53;;;;;;;3.05;2.13;;;;;;;;;;10136328;28;20037;-84
2024/03/03 12:40:47;;;;;;;130.82;34.70;;;;;;;;;;10134802;28;20059;-89
2024/03/03 12:45:44;;;;;;;6.60;2.63;;;;;;;;;;10133404;28;20044;-83
2024/03/03 12:50:38;;;;;;;4.95;2.10;;;;;;;;;;10125136;28;20051;-80
2024/03/03 12:55:35;;;;;;;6.50;2.10;;;;;;;;;;10140428;28;20419;-81
2024/03/03 13:00:29;;;;;;;6.00;2.38;;;;;;;;;;10133453;28;20140;-83
2024/03/03 13:05:23;;;;;;;8.27;2.45;;;;;;;;;;10134440;28;20057;-82
2024/03/03 13:10:20;;;;;;;13.82;2.53;;;;;;;;;;10127866;28;20061;-79
2024/03/03 13:15:16;;;;;;;8.82;2.75;;;;;;;;;;10132453;28;20103;-80
2024/03/03 13:20:15;;;;;;;7.68;2.97;;;;;;;;;;10133485;28;20056;-81
2024/03/03 13:25:09;;;;;;;3.20;1.70;;;;;;;;;;10139680;28;20048;-80
2024/03/03 13:30:06;;;;;;;4.90;2.78;;;;;;;;;;10144114;28;20090;-79
2024/03/03 13:35:00;;;;;;;8.85;2.92;;;;;;;;;;10129826;28;20496;-80
2024/03/03 13:39:53;;;;;;;7.30;2.63;;;;;;;;;;10142389;28;20100;-80
2024/03/03 13:44:47;;;;;;;4.70;2.55;;;;;;;;;;10147985;28;20041;-80
2024/03/03 13:49:41;;;;;;;6.60;2.63;;;;;;;;;;10143577;28;20041;-79
2024/03/03 13:54:36;;;;;;;10.43;3.72;;;;;;;;;;10142242;28;20085;-78
2024/03/03 13:59:31;;;;;;;6.70;5.13;;;;;;;;;;10142441;28;20053;-78
2024/03/03 14:04:25;;;;;;;6.50;3.33;;;;;;;;;;10132193;28;20496;-79
2024/03/03 14:09:18;;;;;;;8.82;2.85;;;;;;;;;;10147971;28;20079;-80
2024/03/03 14:14:13;;;;;;;6.63;2.50;;;;;;;;;;10129503;28;20044;-83
2024/03/03 14:19:06;;;;;;;7.05;3.15;;;;;;;;;;10146831;28;20044;-81
2024/03/03 14:24:00;;;;;;;9.95;2.15;;;;;;;;;;10148925;28;20055;-80
2024/03/03 14:28:54;;;;;;;8.75;2.45;;;;;;;;;;10148773;28;20048;-80
2024/03/03 14:33:49;;;;;;;4.57;2.38;;;;;;;;;;10145468;28;20094;-81
2024/03/03 14:38:44;;;;;;;5.20;2.35;;;;;;;;;;10137831;28;20106;-80
2024/03/03 14:43:38;;;;;;;3.17;2.10;;;;;;;;;;10141235;28;20496;-80
2024/03/03 14:48:32;;;;;;;6.65;2.55;;;;;;;;;;10130068;28;20562;-80
2024/03/03 14:53:25;;;;;;;5.63;3.05;;;;;;;;;;10147090;28;20447;-79
2024/03/03 14:58:18;;;;;;;6.18;3.60;;;;;;;;;;10139038;28;20511;-78
2024/03/03 15:03:12;;;;;;;4.13;2.38;;;;;;;;;;10143182;28;20393;-78
2024/03/03 15:08:06;;;;;;;10.38;3.70;;;;;;;;;;10145429;28;20416;-77
2024/03/03 15:13:04;;;;;;;9.93;4.00;;;;;;;;;;10141850;28;20056;-80
2024/03/03 15:17:59;;;;;;;2.97;2.50;;;;;;;;;;10146481;28;20605;-78
2024/03/03 15:22:53;;;;;;;6.55;2.90;;;;;;;;;;10136477;28;20076;-74
2024/03/03 15:27:46;;;;;;;8.30;2.88;;;;;;;;;;10139121;28;20048;-78
2024/03/03 15:32:41;;;;;;;8.40;3.40;;;;;;;;;;10126438;28;20071;-79
2024/03/03 15:37:35;;;;;;;76.60;10.52;;;;;;;;;;10139177;28;20054;-78
2024/03/03 15:42:28;;;;;;;6.15;3.00;;;;;;;;;;10135971;28;20403;-80
2024/03/03 15:47:20;;;;;;;7.57;2.97;;;;;;;;;;10131686;28;20040;-78
2024/03/03 15:52:14;;;;;;;5.85;3.42;;;;;;;;;;10123165;28;20099;-80
2024/03/03 15:57:08;;;;;;;7.20;4.30;;;;;;;;;;10137593;28;20040;-79
2024/03/03 16:02:01;;;;;;;9.60;4.00;;;;;;;;;;10145439;28;20054;-80
2024/03/03 16:06:57;;;;;;;8.55;5.72;;;;;;;;;;10131862;28;20084;-79
2024/03/03 16:11:53;;;;;;;12.02;7.97;;;;;;;;;;10141792;28;20087;-80
2024/03/03 16:16:50;;;;;;;8.52;5.30;;;;;;;;;;10135938;28;20054;-80
2024/03/03 16:21:45;;;;;;;13.10;8.73;;;;;;;;;;10138431;28;21386;-81
2024/03/03 16:26:40;;;;;;;12.82;7.95;;;;;;;;;;10135055;28;20470;-80
2024/03/03 16:31:36;;;;;;;8.30;4.57;;;;;;;;;;10141691;28;20080;-78
2024/03/03 16:36:32;;;;;;;7.20;3.40;;;;;;;;;;10144623;28;20447;-77
2024/03/03 16:41:26;;;;;;;4.90;3.83;;;;;;;;;;10126948;28;20053;-80
2024/03/03 16:46:20;;;;;;;8.40;5.13;;;;;;;;;;10141131;28;20062;-86
2024/03/03 16:51:14;;;;;;;9.05;4.82;;;;;;;;;;10126914;28;20048;-78
2024/03/03 16:56:11;;;;;;;8.77;5.05;;;;;;;;;;10137623;28;20562;-78
2024/03/03 17:01:06;;;;;;;13.40;6.18;;;;;;;;;;10141149;28;20052;-77
2024/03/03 17:06:00;;;;;;;12.48;5.63;;;;;;;;;;10139136;28;20522;-78
2024/03/03 17:10:55;;;;;;;14.15;6.50;;;;;;;;;;10124680;28;20071;-77
2024/03/03 17:15:49;;;;;;;10.27;6.05;;;;;;;;;;10142636;28;20054;-81
2024/03/03 17:20:42;;;;;;;7.25;4.38;;;;;;;;;;10142292;28;20135;-78
2024/03/03 17:25:37;;;;;;;6.28;4.75;;;;;;;;;;10140517;28;20052;-80
2024/03/03 17:30:32;;;;;;;7.53;3.97;;;;;;;;;;10143213;28;20052;-79
2024/03/03 17:35:27;;;;;;;5.90;3.78;;;;;;;;;;10142266;28;20044;-80
2024/03/03 17:40:21;;;;;;;10.93;7.45;;;;;;;;;;10135625;28;20044;-79
2024/03/03 17:45:16;;;;;;;12.43;7.63;;;;;;;;;;10149274;28;20080;-79
2024/03/03 17:50:10;;;;;;;9.75;6.32;;;;;;;;;;10145105;28;20506;-79
2024/03/03 17:55:05;;;;;;;7.85;6.43;;;;;;;;;;10138036;28;20405;-76
2024/03/03 18:00:01;;;;;;;8.68;7.13;;;;;;;;;;10151091;28;20128;-81
2024/03/03 18:05:04;;;;;;;7.07;6.05;;;;;;;;;;10143372;28;20056;-81
2024/03/03 18:09:59;;;;;;;7.15;5.60;;;;;;;;;;10135277;28;20059;-79
2024/03/03 18:14:53;;;;;;;7.65;6.22;;;;;;;;;;10144197;28;20048;-81
2024/03/03 18:19:46;;;;;;;8.40;5.75;;;;;;;;;;10137016;28;20037;-79
2024/03/03 18:24:41;;;;;;;13.50;7.25;;;;;;;;;;10147566;28;20508;-80
2024/03/03 18:29:36;;;;;;;9.90;5.22;;;;;;;;;;10143393;28;20037;-80
2024/03/03 18:34:30;;;;;;;7.70;6.28;;;;;;;;;;10145013;28;20412;-80
2024/03/03 18:39:25;;;;;;;13.07;6.88;;;;;;;;;;10148119;28;20048;-80
2024/03/03 18:44:19;;;;;;;8.10;7.18;;;;;;;;;;10147715;28;20123;-80
2024/03/03 18:49:13;;;;;;;12.23;8.07;;;;;;;;;;10147463;28;20106;-80
2024/03/03 18:54:07;;;;;;;11.50;10.00;;;;;;;;;;10140916;28;20139;-83
2024/03/03 18:59:01;;;;;;;15.88;12.40;;;;;;;;;;10145047;28;20483;-80
2024/03/03 19:03:55;;;;;;;12.43;11.13;;;;;;;;;;10147076;28;20052;-81
2024/03/03 19:08:50;;;;;;;18.73;14.93;;;;;;;;;;10148809;28;20052;-81
2024/03/03 19:13:44;;;;;;;17.73;15.85;;;;;;;;;;10135783;28;20055;-82
2024/03/03 19:18:39;;;;;;;17.90;15.32;;;;;;;;;;10147018;28;20044;-82
2024/03/03 19:23:33;;;;;;;15.32;11.27;;;;;;;;;;10141818;28;20079;-84
2024/03/03 19:28:28;;;;;;;18.17;14.43;;;;;;;;;;10141401;28;20408;-82
2024/03/03 19:33:22;;;;;;;14.55;13.02;;;;;;;;;;10145753;28;20056;-83
2024/03/03 19:38:18;;;;;;;15.90;13.73;;;;;;;;;;10139119;28;20076;-83
2024/03/03 19:43:12;;;;;;;240.88;74.05;;;;;;;;;;10143551;28;20411;-83
2024/03/03 19:48:07;;;;;;;19.45;14.98;;;;;;;;;;10143630;28;20531;-87
2024/03/03 19:53:00;;;;;;;17.55;14.02;;;;;;;;;;10140043;28;20083;-82
2024/03/03 19:57:56;;;;;;;17.13;13.88;;;;;;;;;;10139298;28;20041;-84
2024/03/03 20:02:51;;;;;;;18.98;12.80;;;;;;;;;;10130544;28;20462;-85
2024/03/03 20:07:45;;;;;;;22.40;11.48;;;;;;;;;;10137428;28;20056;-86
2024/03/03 20:12:39;;;;;;;16.35;14.65;;;;;;;;;;10138676;28;20040;-84
2024/03/03 20:17:32;;;;;;;17.67;13.05;;;;;;;;;;10137611;28;20516;-83
2024/03/03 20:22:27;;;;;;;19.25;15.32;;;;;;;;;;10123004;28;20547;-82
2024/03/03 20:27:21;;;;;;;20.95;15.07;;;;;;;;;;10128564;28;20094;-83
2024/03/03 20:32:16;;;;;;;19.52;15.80;;;;;;;;;;10125802;28;20056;-84
2024/03/03 20:37:13;;;;;;;19.92;16.35;;;;;;;;;;10131773;28;20412;-84
2024/03/03 20:42:07;;;;;;;22.88;15.27;;;;;;;;;;10136460;28;20048;-88
2024/03/03 20:47:03;;;;;;;32.75;20.35;;;;;;;;;;10144151;28;20048;-81
2024/03/03 20:51:56;;;;;;;42.38;37.67;;;;;;;;;;10142432;28;20056;-84
2024/03/03 20:56:51;;;;;;;37.28;32.40;;;;;;;;;;10137590;28;20072;-83
2024/03/03 21:01:46;;;;;;;25.15;22.05;;;;;;;;;;10138450;28;20107;-83
2024/03/03 21:06:40;;;;;;;22.08;19.85;;;;;;;;;;10134575;28;20051;-85
2024/03/03 21:11:33;;;;;;;23.65;18.85;;;;;;;;;;10136652;28;20467;-87
2024/03/03 21:16:28;;;;;;;39.53;27.35;;;;;;;;;;10142619;28;20442;-85
2024/03/03 21:21:22;;;;;;;33.80;25.33;;;;;;;;;;10144232;28;20125;-81
2024/03/03 21:26:16;;;;;;;8.73;6.53;;;;;;;;;;10143207;28;20056;-84
2024/03/03 21:31:10;;;;;;;9.27;7.22;;;;;;;;;;10151083;28;20041;-80
2024/03/03 21:36:08;;;;;;;5.10;4.25;;;;;;;;;;10150496;28;20504;-79
2024/03/03 21:41:03;;;;;;;5.97;3.45;;;;;;;;;;10150660;28;20056;-81
2024/03/03 21:45:57;;;;;;;1.60;1.50;;;;;;;;;;10150227;28;20602;-83
2024/03/03 21:50:52;;;;;;;3.50;3.00;;;;;;;;;;10143636;28;20082;-82
2024/03/03 21:55:46;;;;;;;4.57;3.63;;;;;;;;;;10140322;28;20514;-87
2024/03/03 22:00:40;;;;;;;5.75;3.80;;;;;;;;;;10142929;28;20127;-87
2024/03/03 22:05:34;;;;;;;8.68;4.05;;;;;;;;;;10148260;28;20039;-85
2024/03/03 22:10:28;;;;;;;10.25;7.35;;;;;;;;;;10148516;28;20139;-84
2024/03/03 22:15:23;;;;;;;2.83;2.30;;;;;;;;;;10148659;28;20041;-85
2024/03/03 22:20:17;;;;;;;7.15;5.68;;;;;;;;;;10148682;28;20575;-85
2024/03/03 22:25:10;;;;;;;8.50;5.90;;;;;;;;;;10143800;28;20048;-83
2024/03/03 22:30:06;;;;;;;2.63;2.42;;;;;;;;;;10143045;28;20144;-87
2024/03/03 22:35:00;;;;;;;9.88;6.60;;;;;;;;;;10148865;28;20057;-86
2024/03/03 22:39:55;;;;;;;11.88;9.65;;;;;;;;;;10140220;28;20040;-91
2024/03/03 22:44:49;;;;;;;12.38;8.05;;;;;;;;;;10126772;28;20082;-80
2024/03/03 22:49:43;;;;;;;9.82;7.32;;;;;;;;;;10142915;28;20113;-87
2024/03/03 22:54:36;;;;;;;2.67;2.17;;;;;;;;;;10136388;28;20059;-84
2024/03/03 22:59:30;;;;;;;3.83;3.53;;;;;;;;;;10129156;28;20101;-83
2024/03/03 23:04:24;;;;;;;2.60;2.40;;;;;;;;;;10136465;28;20060;-88
2024/03/03 23:09:18;;;;;;;2.88;2.17;;;;;;;;;;10143432;28;20412;-87
2024/03/03 23:14:12;;;;;;;2.20;1.77;;;;;;;;;;10135044;28;20059;-84
2024/03/03 23:19:06;;;;;;;1.27;1.20;;;;;;;;;;10142129;28;20053;-86
2024/03/03 23:24:00;;;;;;;1.42;1.33;;;;;;;;;;10147804;28;20071;-88
2024/03/03 23:28:57;;;;;;;2.38;2.15;;;;;;;;;;10146474;28;20040;-86
2024/03/03 23:33:51;;;;;;;1.50;1.40;;;;;;;;;;10146683;28;20056;-85
2024/03/03 23:38:46;;;;;;;2.95;1.42;;;;;;;;;;10136761;28;20412;-84
2024/03/03 23:43:40;;;;;;;3.13;2.83;;;;;;;;;;10142250;28;20577;-84
2024/03/03 23:48:34;;;;;;;2.75;2.55;;;;;;;;;;10138802;28;20447;-85
2024/03/03 23:53:28;;;;;;;1.70;1.60;;;;;;;;;;10137727;28;20055;-85
2024/03/03 23:58:21;;;;;;;2.00;1.90;;;;;;;;;;10141718;28;20110;-86
